Time;durP1;ratioP1;P1;durP2;ratioP2;P2;SDS_P1;SDS_P2;PMS_P1;PMS_P2;Temp;Humidity;BMP_temperature;BMP_pressure;BME280_temperature;BME280_humidity;BME280_pressure;Samples;Min_cycle;Max_cycle;Signal;HPM_P1;HPM_P2
2023/07/08 00:00:17;;;;;;;0.20;0.20;;;18.40;87.20;;;;;;5052396;28;20552;-84
2023/07/08 00:02:42;;;;;;;0.20;0.20;;;18.30;87.40;;;;;;5042181;28;20041;-84
2023/07/08 00:05:11;;;;;;;0.20;0.20;;;18.30;87.60;;;;;;5030552;28;20056;-86
2023/07/08 00:07:38;;;;;;;0.20;0.20;;;18.30;87.90;;;;;;5031694;28;20047;-85
2023/07/08 00:10:30;;;;;;;0.20;0.20;;;18.20;88.10;;;;;;5046609;28;20063;-85
2023/07/08 00:12:57;;;;;;;0.20;0.20;;;18.20;89.00;;;;;;5024483;28;20160;-85
2023/07/08 00:15:28;;;;;;;0.20;0.20;;;18.20;88.60;;;;;;5049462;28;20128;-84
2023/07/08 00:17:54;;;;;;;;;;;18.10;88.80;;;;;;5048134;28;20053;-85
2023/07/08 00:20:28;;;;;;;0.20;0.20;;;18.10;89.00;;;;;;5047778;28;19920;-85
2023/07/08 00:22:55;;;;;;;0.20;0.20;;;18.10;89.30;;;;;;5048388;28;20094;-87
2023/07/08 00:25:20;;;;;;;0.20;0.20;;;18.00;89.60;;;;;;5048327;28;20033;-85
2023/07/08 00:27:47;;;;;;;0.20;0.20;;;17.90;89.80;;;;;;5028770;28;20118;-86
2023/07/08 00:30:23;;;;;;;0.20;0.20;;;17.90;90.00;;;;;;5030527;28;20147;-85
2023/07/08 00:32:53;;;;;;;0.20;0.20;;;17.90;90.10;;;;;;5041637;28;20136;-85
2023/07/08 00:35:40;;;;;;;0.20;0.20;;;17.90;90.30;;;;;;5045801;28;20041;-85
2023/07/08 00:38:20;;;;;;;0.20;0.20;;;17.80;90.40;;;;;;5047983;28;20048;-85
2023/07/08 00:40:52;;;;;;;0.20;0.20;;;17.80;90.50;;;;;;5044567;28;20478;-85
2023/07/08 00:43:22;;;;;;;0.10;0.10;;;17.70;90.70;;;;;;5044389;28;20508;-84
2023/07/08 00:45:52;;;;;;;0.15;0.15;;;17.70;90.80;;;;;;5049656;28;20400;-85
2023/07/08 00:48:31;;;;;;;0.20;0.20;;;17.70;91.00;;;;;;5049111;28;20052;-84
2023/07/08 00:50:57;;;;;;;0.20;0.20;;;17.60;91.10;;;;;;5052807;28;20118;-85
2023/07/08 00:53:26;;;;;;;0.20;0.20;;;17.60;91.20;;;;;;5051140;28;20124;-85
2023/07/08 00:55:57;;;;;;;0.20;0.20;;;17.60;91.40;;;;;;5050890;28;20041;-84
2023/07/08 00:58:25;;;;;;;0.20;0.20;;;17.50;91.50;;;;;;5051412;28;20493;-86
2023/07/08 01:00:53;;;;;;;0.20;0.20;;;17.50;91.70;;;;;;5051610;28;20037;-85
2023/07/08 01:03:20;;;;;;;0.20;0.20;;;17.50;91.90;;;;;;5051687;28;20683;-85
2023/07/08 01:05:47;;;;;;;0.20;0.20;;;17.50;91.90;;;;;;5051895;28;20074;-84
2023/07/08 01:08:13;;;;;;;0.10;0.10;;;17.40;92.10;;;;;;5051659;28;20131;-85
2023/07/08 01:10:49;;;;;;;0.20;0.20;;;17.40;92.20;;;;;;5049691;28;20696;-84
2023/07/08 01:13:17;;;;;;;0.15;0.15;;;17.40;92.30;;;;;;5049710;28;20094;-84
2023/07/08 01:15:46;;;;;;;0.10;0.10;;;17.30;92.40;;;;;;5049596;28;20045;-84
2023/07/08 01:18:16;;;;;;;0.20;0.20;;;17.30;92.60;;;;;;5040523;28;20717;-84
2023/07/08 01:20:42;;;;;;;0.20;0.20;;;17.30;92.70;;;;;;5046652;28;20103;-84
2023/07/08 01:23:09;;;;;;;0.20;0.20;;;17.20;92.80;;;;;;5049857;28;20132;-85
2023/07/08 01:25:35;;;;;;;0.10;0.10;;;17.20;92.90;;;;;;5050808;28;20132;-85
2023/07/08 01:28:02;;;;;;;0.20;0.20;;;17.20;93.00;;;;;;5047985;28;20124;-84
2023/07/08 01:30:29;;;;;;;0.30;0.30;;;17.10;93.10;;;;;;5048905;28;20128;-84
2023/07/08 01:33:01;;;;;;;0.20;0.20;;;17.10;93.20;;;;;;5035206;28;20119;-85
2023/07/08 01:35:27;;;;;;;0.13;0.13;;;17.10;93.40;;;;;;5047803;28;20060;-84
2023/07/08 01:37:57;;;;;;;0.10;0.10;;;17.10;93.50;;;;;;5047976;28;20037;-85
2023/07/08 01:40:33;;;;;;;0.20;0.20;;;17.00;93.60;;;;;;5047282;28;20052;-85
2023/07/08 01:43:01;;;;;;;0.20;0.20;;;17.00;93.80;;;;;;5047507;28;20040;-85
2023/07/08 01:45:31;;;;;;;0.20;0.20;;;17.00;93.90;;;;;;5048506;28;20141;-84
2023/07/08 01:48:02;;;;;;;0.27;0.27;;;17.00;93.90;;;;;;5048613;28;20110;-85
2023/07/08 01:50:29;;;;;;;;;;;16.90;94.00;;;;;;5046568;28;20346;-85
2023/07/08 01:52:57;;;;;;;0.20;0.20;;;16.90;94.20;;;;;;5049316;28;19920;-85
2023/07/08 01:55:24;;;;;;;0.20;0.20;;;16.90;94.30;;;;;;5052358;28;20037;-84
2023/07/08 01:57:54;;;;;;;0.20;0.20;;;16.90;94.30;;;;;;5045338;28;20048;-83
2023/07/08 02:00:21;;;;;;;0.20;0.20;;;16.80;94.40;;;;;;5046735;28;20693;-84
2023/07/08 02:02:47;;;;;;;0.20;0.20;;;16.80;94.50;;;;;;5047800;28;20040;-84
2023/07/08 02:05:13;;;;;;;0.17;0.17;;;16.80;94.60;;;;;;5046968;28;20239;-84
2023/07/08 02:07:38;;;;;;;0.10;0.10;;;16.80;94.70;;;;;;5048525;28;20037;-84
2023/07/08 02:10:05;;;;;;;0.20;0.20;;;16.80;94.80;;;;;;5053580;28;20190;-84
2023/07/08 02:12:30;;;;;;;0.10;0.10;;;16.80;94.90;;;;;;5054398;28;20041;-83
2023/07/08 02:14:56;;;;;;;0.20;0.20;;;16.70;95.00;;;;;;5052034;28;20053;-84
2023/07/08 02:17:22;;;;;;;0.20;0.20;;;16.70;95.10;;;;;;5054859;28;20041;-85
2023/07/08 02:19:47;;;;;;;0.20;0.20;;;16.70;95.20;;;;;;5051096;28;20041;-85
2023/07/08 02:22:13;;;;;;;0.10;0.10;;;16.70;95.30;;;;;;5034939;28;20045;-84
2023/07/08 02:24:39;;;;;;;0.20;0.20;;;16.70;95.40;;;;;;5032647;28;20120;-86
2023/07/08 02:27:04;;;;;;;0.20;0.20;;;16.70;95.50;;;;;;5044745;28;20041;-85
2023/07/08 02:29:31;;;;;;;0.20;0.20;;;16.70;95.60;;;;;;5054106;28;20049;-85
2023/07/08 02:31:57;;;;;;;0.20;0.20;;;16.70;95.70;;;;;;5046626;28;20068;-85
2023/07/08 02:34:23;;;;;;;0.10;0.10;;;16.70;96.00;;;;;;5032609;28;20045;-85
2023/07/08 02:36:49;;;;;;;0.20;0.20;;;16.60;95.80;;;;;;5032581;28;20043;-84
2023/07/08 02:39:14;;;;;;;0.20;0.20;;;16.60;95.80;;;;;;5050619;28;20083;-85
2023/07/08 02:41:40;;;;;;;0.20;0.20;;;16.60;95.90;;;;;;5033405;28;20127;-87
2023/07/08 02:44:06;;;;;;;0.20;0.20;;;16.60;96.00;;;;;;5050331;28;20033;-85
2023/07/08 02:46:31;;;;;;;0.20;0.20;;;16.60;96.10;;;;;;5048931;28;20033;-85
2023/07/08 02:48:57;;;;;;;0.20;0.20;;;16.60;96.20;;;;;;5032958;28;20049;-86
2023/07/08 02:51:23;;;;;;;0.20;0.20;;;16.60;96.20;;;;;;5042963;28;20124;-85
2023/07/08 02:53:50;;;;;;;0.20;0.20;;;16.60;96.30;;;;;;5033024;28;20076;-86
2023/07/08 02:56:15;;;;;;;0.20;0.20;;;16.60;96.30;;;;;;5050984;28;20287;-85
2023/07/08 02:58:41;;;;;;;0.20;0.20;;;16.60;96.40;;;;;;5050452;28;20079;-86
2023/07/08 03:01:09;;;;;;;0.10;0.10;;;16.60;96.50;;;;;;5030124;28;20041;-85
2023/07/08 03:03:35;;;;;;;0.20;0.20;;;16.60;96.60;;;;;;5032529;28;20056;-85
2023/07/08 03:06:05;;;;;;;0.20;0.20;;;16.60;96.60;;;;;;5054149;28;20404;-85
2023/07/08 03:08:31;;;;;;;0.20;0.20;;;16.60;96.70;;;;;;5033312;28;20218;-85
2023/07/08 03:10:59;;;;;;;0.20;0.20;;;16.60;96.80;;;;;;5032097;28;20772;-85
2023/07/08 03:13:26;;;;;;;0.20;0.20;;;16.60;96.80;;;;;;5049593;28;20400;-84
2023/07/08 03:15:52;;;;;;;0.10;0.10;;;16.60;96.90;;;;;;5029099;28;20064;-85
2023/07/08 03:18:17;;;;;;;0.20;0.20;;;16.60;97.00;;;;;;5030832;28;20496;-83
2023/07/08 03:20:46;;;;;;;0.10;0.10;;;16.60;97.00;;;;;;5032055;28;20523;-85
2023/07/08 03:23:12;;;;;;;0.20;0.20;;;16.60;97.10;;;;;;5031099;28;20079;-85
2023/07/08 03:25:38;;;;;;;0.10;0.10;;;16.60;97.20;;;;;;5031646;28;20628;-86
2023/07/08 03:28:06;;;;;;;0.10;0.10;;;16.60;97.20;;;;;;5029612;28;20043;-86
2023/07/08 03:30:32;;;;;;;0.20;0.20;;;16.60;97.30;;;;;;5032992;28;20045;-85
2023/07/08 03:32:58;;;;;;;0.20;0.20;;;16.60;97.30;;;;;;5043562;28;20144;-85
2023/07/08 03:35:24;;;;;;;0.20;0.20;;;16.60;97.40;;;;;;5048292;28;22123;-85
2023/07/08 03:37:51;;;;;;;0.10;0.10;;;16.60;97.50;;;;;;5039445;28;20049;-85
2023/07/08 03:40:17;;;;;;;0.17;0.17;;;16.60;97.50;;;;;;5049290;28;20140;-87
2023/07/08 03:42:43;;;;;;;0.20;0.20;;;16.60;97.60;;;;;;5037090;28;20155;-87
2023/07/08 03:45:09;;;;;;;0.15;0.15;;;16.60;97.60;;;;;;5049014;28;20045;-87
2023/07/08 03:47:35;;;;;;;0.20;0.20;;;16.60;97.70;;;;;;5050732;28;20393;-85
2023/07/08 03:50:01;;;;;;;0.20;0.20;;;16.60;97.70;;;;;;5038574;28;20049;-82
2023/07/08 03:52:26;;;;;;;0.20;0.20;;;16.60;97.80;;;;;;5042825;28;20045;-86
2023/07/08 03:54:52;;;;;;;0.20;0.20;;;16.60;97.80;;;;;;5037152;28;20033;-84
2023/07/08 03:57:18;;;;;;;0.20;0.20;;;16.60;97.90;;;;;;5047808;28;20469;-83
2023/07/08 03:59:43;;;;;;;0.10;0.10;;;16.60;97.90;;;;;;5047939;28;20124;-84
2023/07/08 04:02:11;;;;;;;0.20;0.20;;;16.60;98.00;;;;;;5048107;28;20496;-84
2023/07/08 04:04:37;;;;;;;0.15;0.15;;;16.60;98.00;;;;;;5041627;28;20099;-84
2023/07/08 04:07:06;;;;;;;0.10;0.10;;;16.60;98.10;;;;;;5047744;28;20037;-84
2023/07/08 04:09:32;;;;;;;0.20;0.20;;;16.60;98.10;;;;;;5046969;28;20052;-84
2023/07/08 04:12:00;;;;;;;0.10;0.10;;;16.60;98.20;;;;;;5047095;28;20041;-85
2023/07/08 04:14:26;;;;;;;0.10;0.10;;;16.70;98.30;;;;;;5049756;28;20044;-84
2023/07/08 04:16:59;;;;;;;0.20;0.20;;;16.70;98.30;;;;;;5047143;28;20530;-85
2023/07/08 04:19:26;;;;;;;0.20;0.20;;;16.70;98.30;;;;;;5046163;28;20041;-85
2023/07/08 04:21:53;;;;;;;0.10;0.10;;;16.70;98.40;;;;;;5054356;28;20145;-85
2023/07/08 04:24:18;;;;;;;0.10;0.10;;;16.70;98.40;;;;;;5048881;28;20045;-86
2023/07/08 04:26:47;;;;;;;0.20;0.20;;;16.70;98.50;;;;;;5050664;28;20029;-85
2023/07/08 04:29:15;;;;;;;0.20;0.20;;;16.80;98.50;;;;;;5047137;28;20134;-85
2023/07/08 04:31:41;;;;;;;0.10;0.10;;;16.80;98.50;;;;;;5047803;28;20091;-85
2023/07/08 04:34:08;;;;;;;0.20;0.20;;;16.80;98.60;;;;;;5047754;28;20060;-84
2023/07/08 04:36:34;;;;;;;0.20;0.20;;;16.80;98.60;;;;;;5050526;28;20041;-85
2023/07/08 04:39:03;;;;;;;0.20;0.20;;;16.80;98.60;;;;;;5043052;28;20048;-85
2023/07/08 04:41:29;;;;;;;0.10;0.10;;;16.80;98.70;;;;;;5047238;28;20068;-85
2023/07/08 04:43:56;;;;;;;0.20;0.20;;;16.90;98.70;;;;;;5049119;28;20430;-85
2023/07/08 04:46:38;;;;;;;0.20;0.20;;;16.90;98.80;;;;;;5045901;28;20057;-84
2023/07/08 04:49:06;;;;;;;0.20;0.20;;;16.90;98.80;;;;;;5043023;28;20072;-85
2023/07/08 04:51:32;;;;;;;0.10;0.10;;;17.00;98.80;;;;;;5047262;28;20136;-86
2023/07/08 04:53:58;;;;;;;0.10;0.10;;;17.00;98.90;;;;;;5048425;28;20045;-85
2023/07/08 04:56:41;;;;;;;0.20;0.20;;;17.00;98.90;;;;;;5045975;28;20044;-85
2023/07/08 04:59:34;;;;;;;0.15;0.15;;;17.10;98.90;;;;;;5047464;28;20053;-85
2023/07/08 05:02:00;;;;;;;0.20;0.20;;;17.10;99.00;;;;;;5035104;28;20064;-83
2023/07/08 05:04:25;;;;;;;0.20;0.20;;;17.20;99.20;;;;;;5048817;28;20056;-84
2023/07/08 05:06:51;;;;;;;0.10;0.10;;;17.20;99.00;;;;;;5048393;28;20049;-85
2023/07/08 05:09:17;;;;;;;0.10;0.10;;;17.20;99.00;;;;;;5048961;28;20044;-84
2023/07/08 05:11:44;;;;;;;0.20;0.20;;;17.30;99.00;;;;;;5047143;28;20407;-84
2023/07/08 05:14:12;;;;;;;0.17;0.17;;;17.30;99.10;;;;;;5046889;28;20044;-84
2023/07/08 05:16:38;;;;;;;0.10;0.10;;;17.30;99.10;;;;;;5048172;28;20049;-83
2023/07/08 05:19:04;;;;;;;0.20;0.20;;;17.30;99.10;;;;;;5045227;28;20103;-84
2023/07/08 05:21:33;;;;;;;0.20;0.20;;;17.40;99.10;;;;;;5048641;28;20051;-85
2023/07/08 05:24:03;;;;;;;0.20;0.20;;;17.40;99.20;;;;;;5048359;28;20033;-84
2023/07/08 05:26:28;;;;;;;0.20;0.20;;;17.50;99.20;;;;;;5047354;28;20056;-85
2023/07/08 05:28:54;;;;;;;0.20;0.20;;;17.60;99.20;;;;;;5047772;28;20405;-86
2023/07/08 05:31:20;;;;;;;0.20;0.20;;;17.60;99.20;;;;;;5049085;28;20106;-84
2023/07/08 05:33:46;;;;;;;0.20;0.20;;;17.60;99.20;;;;;;5034231;28;20037;-85
2023/07/08 05:36:11;;;;;;;0.17;0.17;;;17.60;99.30;;;;;;5061538;28;20056;-86
2023/07/08 05:38:38;;;;;;;0.10;0.10;;;17.70;99.30;;;;;;5037282;28;20033;-84
2023/07/08 05:41:03;;;;;;;0.10;0.10;;;17.80;99.30;;;;;;5053318;28;20535;-85
2023/07/08 05:43:29;;;;;;;0.20;0.20;;;17.80;99.30;;;;;;5035908;28;20068;-83
2023/07/08 05:46:02;;;;;;;0.20;0.20;;;17.90;99.40;;;;;;5031099;28;20049;-84
2023/07/08 05:48:28;;;;;;;0.20;0.20;;;17.90;99.40;;;;;;5050221;28;20072;-84
2023/07/08 05:50:53;;;;;;;0.20;0.20;;;18.00;99.40;;;;;;5050090;28;20045;-84
2023/07/08 05:53:22;;;;;;;0.20;0.20;;;18.00;99.40;;;;;;5033380;28;20037;-84
2023/07/08 05:55:49;;;;;;;0.20;0.20;;;18.10;99.40;;;;;;5048192;28;20092;-86
2023/07/08 05:58:15;;;;;;;0.20;0.20;;;18.10;99.40;;;;;;5030821;28;20370;-83
2023/07/08 06:00:42;;;;;;;0.20;0.20;;;18.20;99.40;;;;;;5049397;28;20514;-84
2023/07/08 06:03:08;;;;;;;0.20;0.20;;;18.20;99.30;;;;;;5033156;28;20586;-85
2023/07/08 06:05:34;;;;;;;0.20;0.20;;;18.30;99.30;;;;;;5033313;28;20634;-84
2023/07/08 06:08:00;;;;;;;0.20;0.20;;;18.30;99.20;;;;;;5050568;28;20116;-85
2023/07/08 06:10:26;;;;;;;0.20;0.20;;;18.40;99.20;;;;;;5033054;28;20045;-84
2023/07/08 06:12:51;;;;;;;0.20;0.20;;;18.50;99.20;;;;;;5054266;28;20029;-85
2023/07/08 06:15:17;;;;;;;0.20;0.20;;;18.50;99.20;;;;;;5052946;28;20484;-84
2023/07/08 06:17:43;;;;;;;0.20;0.20;;;18.60;99.10;;;;;;5051219;28;20496;-83
2023/07/08 06:20:09;;;;;;;0.20;0.20;;;18.60;99.10;;;;;;5031112;28;20044;-84
2023/07/08 06:22:34;;;;;;;0.10;0.10;;;18.70;99.10;;;;;;5029759;28;20484;-83
2023/07/08 06:25:00;;;;;;;0.20;0.20;;;18.70;99.10;;;;;;5031409;28;20459;-84
2023/07/08 06:27:25;;;;;;;0.20;0.20;;;18.80;99.00;;;;;;5044669;28;20128;-86
2023/07/08 06:29:51;;;;;;;0.20;0.20;;;18.80;98.90;;;;;;5051072;28;20087;-84
2023/07/08 06:32:17;;;;;;;0.20;0.20;;;18.90;98.80;;;;;;5047024;28;20091;-84
2023/07/08 06:34:42;;;;;;;0.10;0.10;;;18.90;98.80;;;;;;5048811;28;20057;-83
2023/07/08 06:37:08;;;;;;;0.20;0.20;;;19.00;98.70;;;;;;5031010;28;20055;-84
2023/07/08 06:39:34;;;;;;;0.20;0.20;;;19.10;98.70;;;;;;5047770;28;20124;-83
2023/07/08 06:42:00;;;;;;;0.10;0.10;;;19.20;99.00;;;;;;5043518;28;20068;-83
2023/07/08 06:44:26;;;;;;;0.10;0.10;;;19.20;98.80;;;;;;5031342;28;20129;-85
2023/07/08 06:46:52;;;;;;;0.10;0.10;;;19.30;98.80;;;;;;5049128;28;20045;-84
2023/07/08 06:49:18;;;;;;;0.20;0.20;;;19.40;98.70;;;;;;5034144;28;20065;-83
2023/07/08 06:51:45;;;;;;;0.20;0.20;;;19.40;98.60;;;;;;5033546;28;20036;-85
2023/07/08 06:54:11;;;;;;;0.50;0.40;;;19.50;98.60;;;;;;5049156;28;20041;-83
2023/07/08 06:56:38;;;;;;;0.20;0.20;;;19.60;98.60;;;;;;5051041;28;20051;-83
2023/07/08 06:59:04;;;;;;;0.10;0.10;;;19.60;98.50;;;;;;5029704;28;20393;-84
2023/07/08 07:01:30;;;;;;;0.10;0.10;;;19.70;98.50;;;;;;5031692;28;20048;-85
2023/07/08 07:03:56;;;;;;;0.20;0.20;;;19.70;98.50;;;;;;5023042;28;20048;-87
2023/07/08 07:06:21;;;;;;;0.20;0.20;;;19.80;98.50;;;;;;5031663;28;20048;-85
2023/07/08 07:08:48;;;;;;;0.20;0.20;;;19.90;98.30;;;;;;5031784;28;20079;-82
2023/07/08 07:11:13;;;;;;;0.20;0.20;;;19.90;98.20;;;;;;5047775;28;21719;-83
2023/07/08 07:13:39;;;;;;;0.20;0.20;;;20.00;98.30;;;;;;5048709;28;20033;-84
2023/07/08 07:16:05;;;;;;;0.17;0.17;;;20.10;98.20;;;;;;5045487;28;20612;-83
2023/07/08 07:18:30;;;;;;;0.20;0.20;;;20.10;98.00;;;;;;5021691;28;20504;-82
2023/07/08 07:20:58;;;;;;;0.13;0.13;;;20.20;98.00;;;;;;5048639;28;20124;-83
2023/07/08 07:23:24;;;;;;;0.20;0.20;;;20.30;98.00;;;;;;5036885;28;20041;-83
2023/07/08 07:25:50;;;;;;;0.20;0.20;;;20.30;97.80;;;;;;5039385;28;20037;-82
2023/07/08 07:28:19;;;;;;;0.20;0.20;;;20.40;97.70;;;;;;5055856;28;20052;-85
2023/07/08 07:30:45;;;;;;;0.20;0.20;;;20.50;97.60;;;;;;5056568;28;20473;-83
2023/07/08 07:33:11;;;;;;;0.20;0.20;;;20.50;97.60;;;;;;5051637;28;20053;-83
2023/07/08 07:35:44;;;;;;;0.20;0.20;;;20.60;97.70;;;;;;5052904;28;20069;-84
2023/07/08 07:38:10;;;;;;;0.20;0.20;;;20.70;97.60;;;;;;5045669;28;20076;-83
2023/07/08 07:40:36;;;;;;;0.30;0.30;;;20.70;97.50;;;;;;5029584;28;20064;-84
2023/07/08 07:43:02;;;;;;;0.20;0.20;;;20.80;97.40;;;;;;5027712;28;20036;-84
2023/07/08 07:45:27;;;;;;;0.20;0.20;;;20.90;97.30;;;;;;5035033;28;20041;-85
2023/07/08 07:47:53;;;;;;;0.20;0.20;;;20.90;97.20;;;;;;5029242;28;20048;-85
2023/07/08 07:50:19;;;;;;;0.10;0.10;;;21.00;97.30;;;;;;5027487;28;20044;-86
2023/07/08 07:52:45;;;;;;;0.20;0.20;;;21.00;97.20;;;;;;5031294;28;20148;-84
2023/07/08 07:55:11;;;;;;;0.20;0.20;;;21.10;97.00;;;;;;5030836;28;20399;-87
2023/07/08 07:57:36;;;;;;;0.20;0.20;;;21.20;97.00;;;;;;5029049;28;20041;-85
2023/07/08 08:00:03;;;;;;;0.20;0.20;;;21.20;96.90;;;;;;5027302;28;20041;-85
2023/07/08 08:02:29;;;;;;;0.20;0.20;;;21.30;96.70;;;;;;5044060;28;20472;-84
2023/07/08 08:04:54;;;;;;;0.20;0.20;;;21.40;97.00;;;;;;5028968;28;20068;-84
2023/07/08 08:07:20;;;;;;;0.20;0.20;;;21.50;96.30;;;;;;5036824;28;20033;-84
2023/07/08 08:09:46;;;;;;;0.20;0.20;;;21.50;96.50;;;;;;5030958;28;20373;-85
2023/07/08 08:12:12;;;;;;;0.20;0.20;;;21.60;96.40;;;;;;5027517;28;20049;-85
2023/07/08 08:14:38;;;;;;;0.10;0.10;;;21.60;96.30;;;;;;5041758;28;20037;-88
2023/07/08 08:17:05;;;;;;;0.20;0.20;;;21.70;96.20;;;;;;5027678;28;20045;-88
2023/07/08 08:19:31;;;;;;;0.20;0.20;;;21.80;96.10;;;;;;5033500;28;20535;-86
2023/07/08 08:21:57;;;;;;;0.20;0.20;;;21.80;96.00;;;;;;5031040;28;20045;-87
2023/07/08 08:24:23;;;;;;;0.20;0.20;;;21.90;96.00;;;;;;5030229;28;20480;-87
2023/07/08 08:26:50;;;;;;;0.20;0.20;;;22.00;96.00;;;;;;5026974;28;20037;-86
2023/07/08 08:29:16;;;;;;;0.20;0.20;;;22.10;95.90;;;;;;5030369;28;20057;-86
2023/07/08 08:31:41;;;;;;;0.20;0.20;;;22.10;95.90;;;;;;5033181;28;20440;-86
2023/07/08 08:34:07;;;;;;;0.20;0.20;;;22.20;95.90;;;;;;5043415;28;20049;-86
2023/07/08 08:36:33;;;;;;;0.20;0.20;;;22.30;95.90;;;;;;5045983;28;20168;-87
2023/07/08 08:38:58;;;;;;;0.20;0.20;;;22.30;95.80;;;;;;5040783;28;20172;-85
2023/07/08 08:41:33;;;;;;;0.20;0.20;;;22.40;95.80;;;;;;5060096;28;20069;-85
2023/07/08 08:44:01;;;;;;;0.20;0.20;;;22.50;95.90;;;;;;5044481;28;20048;-86
2023/07/08 08:46:49;;;;;;;0.20;0.20;;;22.60;95.80;;;;;;5049220;28;20052;-87
2023/07/08 08:49:21;;;;;;;0.20;0.20;;;22.70;95.70;;;;;;5053800;28;20099;-87
2023/07/08 08:51:49;;;;;;;0.20;0.20;;;22.80;95.60;;;;;;5046954;28;20416;-87
2023/07/08 08:54:15;;;;;;;0.20;0.20;;;22.90;95.50;;;;;;5045227;28;20037;-87
2023/07/08 08:57:08;;;;;;;0.20;0.20;;;22.90;95.40;;;;;;5031342;28;20068;-87
2023/07/08 08:59:57;;;;;;;0.20;0.20;;;23.00;95.40;;;;;;5045043;28;20064;-87
2023/07/08 09:02:30;;;;;;;0.30;0.30;;;23.10;95.40;;;;;;5045572;28;20045;-86
2023/07/08 09:05:02;;;;;;;0.20;0.20;;;23.20;95.40;;;;;;5048128;28;20106;-87
2023/07/08 09:07:30;;;;;;;0.20;0.20;;;23.30;95.10;;;;;;5052679;28;20030;-86
2023/07/08 09:10:13;;;;;;;0.20;0.20;;;23.30;95.10;;;;;;5040068;28;20044;-89
2023/07/08 09:12:39;;;;;;;0.20;0.20;;;23.40;95.20;;;;;;5053053;28;20370;-88
2023/07/08 09:15:26;;;;;;;0.20;0.20;;;23.50;95.00;;;;;;5054291;28;20039;-87
2023/07/08 09:17:57;;;;;;;0.20;0.20;;;23.60;94.80;;;;;;5065935;28;20287;-88
2023/07/08 09:20:28;;;;;;;0.20;0.20;;;23.70;94.60;;;;;;5053355;28;20112;-88
2023/07/08 09:23:02;;;;;;;0.25;0.25;;;23.80;94.60;;;;;;5039557;28;20048;-87
2023/07/08 09:25:33;;;;;;;0.20;0.20;;;23.80;94.60;;;;;;5054152;28;20121;-88
2023/07/08 09:27:59;;;;;;;0.20;0.20;;;23.90;94.70;;;;;;5050706;28;20842;-89
2023/07/08 09:30:28;;;;;;;0.20;0.20;;;24.00;94.60;;;;;;5053217;28;20144;-88
2023/07/08 09:32:55;;;;;;;0.20;0.20;;;24.00;94.40;;;;;;5049730;28;20049;-86
2023/07/08 09:35:25;;;;;;;0.20;0.20;;;24.20;94.10;;;;;;5037547;28;20064;-88
2023/07/08 09:37:52;;;;;;;0.20;0.20;;;24.20;93.80;;;;;;5037347;28;20079;-86
2023/07/08 09:40:19;;;;;;;0.20;0.20;;;24.30;93.80;;;;;;5035365;28;20045;-85
2023/07/08 09:42:52;;;;;;;0.20;0.20;;;24.30;93.80;;;;;;5038012;28;20048;-86
2023/07/08 09:45:24;;;;;;;0.20;0.20;;;24.40;93.60;;;;;;5037857;28;20047;-89
2023/07/08 09:48:01;;;;;;;0.20;0.20;;;24.50;93.60;;;;;;5034286;28;20041;-84
2023/07/08 09:50:29;;;;;;;0.20;0.20;;;24.60;93.20;;;;;;5027120;28;20397;-87
2023/07/08 09:52:57;;;;;;;0.10;0.10;;;24.70;93.00;;;;;;5031560;28;20040;-87
2023/07/08 09:55:23;;;;;;;0.20;0.20;;;24.70;92.90;;;;;;5057563;28;20045;-86
2023/07/08 09:57:53;;;;;;;0.20;0.20;;;24.80;93.00;;;;;;5062633;28;20037;-87
2023/07/08 10:00:29;;;;;;;0.20;0.20;;;24.90;92.80;;;;;;5033135;28;20060;-83
2023/07/08 10:02:58;;;;;;;0.20;0.20;;;24.90;92.70;;;;;;5027620;28;20114;-85
2023/07/08 10:05:38;;;;;;;0.20;0.20;;;25.00;92.60;;;;;;5034324;28;20060;-86
2023/07/08 10:08:15;;;;;;;0.20;0.20;;;25.10;92.50;;;;;;5034246;28;20091;-86
2023/07/08 10:10:42;;;;;;;0.20;0.20;;;25.20;92.50;;;;;;5035272;28;20052;-86
2023/07/08 10:13:22;;;;;;;0.20;0.20;;;25.30;92.60;;;;;;5050984;28;20033;-86
2023/07/08 10:16:24;;;;;;;0.20;0.20;;;25.30;92.40;;;;;;5042806;28;20045;-87
2023/07/08 10:18:50;;;;;;;0.22;0.22;;;25.40;92.40;;;;;;5011010;28;20059;-86
2023/07/08 10:21:19;;;;;;;0.20;0.20;;;25.50;92.30;;;;;;5029325;28;20057;-85
2023/07/08 10:23:58;;;;;;;0.20;0.20;;;25.50;92.30;;;;;;5046275;28;20047;-87
2023/07/08 10:26:28;;;;;;;0.20;0.20;;;25.60;92.10;;;;;;5039212;28;20110;-86
2023/07/08 10:29:22;;;;;;;0.20;0.20;;;25.70;92.00;;;;;;5052549;28;20512;-85
2023/07/08 10:32:02;;;;;;;0.20;0.20;;;25.80;91.80;;;;;;5040206;28;20104;-85
2023/07/08 10:34:57;;;;;;;0.20;0.20;;;25.90;91.80;;;;;;5052387;28;20049;-86
2023/07/08 10:37:35;;;;;;;0.20;0.20;;;26.00;91.90;;;;;;5063259;28;20071;-85
2023/07/08 10:40:31;;;;;;;0.20;0.20;;;26.10;91.90;;;;;;5049519;28;20045;-86
2023/07/08 10:43:18;;;;;;;0.20;0.20;;;26.10;91.30;;;;;;5048158;28;20409;-87
2023/07/08 10:46:01;;;;;;;0.20;0.20;;;26.20;91.40;;;;;;5049300;28;20049;-88
2023/07/08 10:48:46;;;;;;;0.20;0.20;;;26.30;91.40;;;;;;5049838;28;20114;-86
2023/07/08 10:51:36;;;;;;;0.20;0.20;;;26.40;91.10;;;;;;5049921;28;20373;-86
2023/07/08 10:54:24;;;;;;;0.20;0.20;;;26.50;91.00;;;;;;5052093;28;20045;-86
2023/07/08 10:57:11;;;;;;;0.20;0.20;;;26.60;91.00;;;;;;5050135;28;20048;-87
2023/07/08 10:59:47;;;;;;;0.30;0.30;;;26.70;90.80;;;;;;5051580;28;20056;-87
2023/07/08 11:02:38;;;;;;;0.20;0.20;;;26.80;90.40;;;;;;5051977;28;20049;-87
2023/07/08 11:05:10;;;;;;;0.20;0.20;;;26.80;90.30;;;;;;5047597;28;20037;-87
2023/07/08 11:07:49;;;;;;;0.20;0.20;;;27.00;90.30;;;;;;5033150;28;20046;-87
2023/07/08 11:10:26;;;;;;;0.20;0.20;;;27.00;90.10;;;;;;5048338;28;20177;-88
2023/07/08 11:12:57;;;;;;;0.20;0.20;;;27.10;89.80;;;;;;5039946;28;20465;-86
2023/07/08 11:15:45;;;;;;;0.20;0.20;;;27.30;89.60;;;;;;5044398;28;20048;-86
2023/07/08 11:18:29;;;;;;;0.20;0.20;;;27.40;88.80;;;;;;5043352;28;20040;-88
2023/07/08 11:21:10;;;;;;;0.20;0.20;;;27.40;88.60;;;;;;5038227;28;20056;-88
2023/07/08 11:23:49;;;;;;;0.20;0.20;;;27.50;88.10;;;;;;5048878;28;20037;-87
2023/07/08 11:26:29;;;;;;;0.20;0.20;;;27.70;88.30;;;;;;5048172;28;20037;-87
2023/07/08 11:28:58;;;;;;;0.20;0.20;;;27.90;88.30;;;;;;5048561;28;20405;-87
2023/07/08 11:31:27;;;;;;;0.20;0.20;;;28.00;87.80;;;;;;5051642;28;20045;-86
2023/07/08 11:33:54;;;;;;;0.20;0.20;;;28.10;87.80;;;;;;5046228;28;20040;-87
2023/07/08 11:36:22;;;;;;;0.20;0.20;;;28.20;87.20;;;;;;5024809;28;20048;-87
2023/07/08 11:38:50;;;;;;;0.20;0.20;;;28.30;87.00;;;;;;5045284;28;20084;-88
2023/07/08 11:41:19;;;;;;;0.20;0.20;;;28.40;86.50;;;;;;5030591;28;20123;-86
2023/07/08 11:43:45;;;;;;;0.20;0.20;;;28.60;86.80;;;;;;5027823;28;20041;-86
2023/07/08 11:46:17;;;;;;;0.20;0.20;;;28.70;86.60;;;;;;5040235;28;20048;-88
2023/07/08 11:48:47;;;;;;;0.20;0.20;;;29.00;85.50;;;;;;5022426;28;20044;-87
2023/07/08 11:51:20;;;;;;;0.22;0.22;;;29.00;85.90;;;;;;5030525;28;20122;-88
2023/07/08 11:53:59;;;;;;;0.20;0.20;;;29.10;85.00;;;;;;5050476;28;20119;-89
2023/07/08 11:56:26;;;;;;;0.20;0.20;;;29.20;84.20;;;;;;5048954;28;20134;-88
2023/07/08 11:59:13;;;;;;;0.20;0.20;;;29.40;83.80;;;;;;5049825;28;20511;-88
2023/07/08 12:01:51;;;;;;;0.20;0.20;;;29.50;83.40;;;;;;5055951;28;20121;-85
2023/07/08 12:04:29;;;;;;;0.20;0.20;;;29.60;83.00;;;;;;5040745;28;20073;-86
2023/07/08 12:07:16;;;;;;;0.20;0.20;;;29.70;82.30;;;;;;5043781;28;20041;-87
2023/07/08 12:10:09;;;;;;;0.20;0.20;;;29.80;81.20;;;;;;5023867;28;20045;-85
2023/07/08 12:12:37;;;;;;;0.20;0.20;;;29.90;81.10;;;;;;4999754;28;20087;-86
2023/07/08 12:15:28;;;;;;;0.20;0.20;;;30.00;81.00;;;;;;5030406;28;20065;-88
2023/07/08 12:17:55;;;;;;;;;;;30.10;80.20;;;;;;5024407;28;20443;-85
2023/07/08 12:20:26;;;;;;;0.20;0.20;;;30.20;80.10;;;;;;5023141;28;19925;-87
2023/07/08 12:22:52;;;;;;;0.30;0.28;;;30.40;78.90;;;;;;5055041;28;20037;-88
2023/07/08 12:25:24;;;;;;;0.20;0.20;;;30.40;79.30;;;;;;5046107;28;20482;-88
2023/07/08 12:27:50;;;;;;;0.20;0.20;;;30.50;79.10;;;;;;5046462;28;20128;-84
2023/07/08 12:30:16;;;;;;;0.20;0.20;;;30.60;78.90;;;;;;5027513;28;20139;-84
2023/07/08 12:32:43;;;;;;;0.20;0.20;;;30.70;78.90;;;;;;5040580;28;20061;-85
2023/07/08 12:35:31;;;;;;;0.20;0.20;;;30.80;78.80;;;;;;5050442;28;20099;-84
2023/07/08 12:38:03;;;;;;;0.20;0.20;;;30.90;78.60;;;;;;5041852;28;20049;-87
2023/07/08 12:40:30;;;;;;;0.20;0.20;;;31.00;78.60;;;;;;5044563;28;20886;-88
2023/07/08 12:42:57;;;;;;;0.20;0.20;;;31.10;78.20;;;;;;5047535;28;20079;-83
2023/07/08 12:45:25;;;;;;;0.20;0.20;;;31.20;78.10;;;;;;5044471;28;20068;-89
2023/07/08 12:47:51;;;;;;;0.20;0.20;;;31.30;77.90;;;;;;5048651;28;20072;-90
2023/07/08 12:50:17;;;;;;;0.20;0.20;;;31.50;77.50;;;;;;5054428;28;20044;-92
2023/07/08 12:52:47;;;;;;;0.20;0.20;;;31.50;77.30;;;;;;5056412;28;20392;-90
2023/07/08 12:55:14;;;;;;;0.20;0.20;;;31.70;76.90;;;;;;5056599;28;20061;-85
2023/07/08 12:57:44;;;;;;;0.20;0.20;;;31.80;76.70;;;;;;5053534;28;20385;-88
2023/07/08 13:00:27;;;;;;;0.20;0.20;;;31.90;76.40;;;;;;5059620;28;20110;-88